sensor_id;sensor_type;location;lat;lon;timestamp;P1;durP1;ratioP1;P2;durP2;ratioP2
301;SDS011;135;46.256;20.146;2022-07-04T00:00:05;34.90;;;33.20;;
301;SDS011;135;46.256;20.146;2022-07-04T00:02:33;35.10;;;33.40;;
301;SDS011;135;46.256;20.146;2022-07-04T00:05:00;35.75;;;34.00;;
301;SDS011;135;46.256;20.146;2022-07-04T00:07:27;33.50;;;31.90;;
301;SDS011;135;46.256;20.146;2022-07-04T00:09:55;34.05;;;32.35;;
301;SDS011;135;46.256;20.146;2022-07-04T00:12:25;35.05;;;33.35;;
301;SDS011;135;46.256;20.146;2022-07-04T00:14:52;34.90;;;33.20;;
301;SDS011;135;46.256;20.146;2022-07-04T00:17:19;34.25;;;32.55;;
301;SDS011;135;46.256;20.146;2022-07-04T00:19:47;33.70;;;32.00;;
301;SDS011;135;46.256;20.146;2022-07-04T00:22:14;35.80;;;34.00;;
301;SDS011;135;46.256;20.146;2022-07-04T00:24:41;35.20;;;33.50;;
301;SDS011;135;46.256;20.146;2022-07-04T00:27:08;32.70;;;31.10;;
301;SDS011;135;46.256;20.146;2022-07-04T00:29:37;35.10;;;33.40;;
301;SDS011;135;46.256;20.146;2022-07-04T00:32:05;35.05;;;33.35;;
301;SDS011;135;46.256;20.146;2022-07-04T00:34:32;34.50;;;32.80;;
301;SDS011;135;46.256;20.146;2022-07-04T00:37:00;35.00;;;33.30;;
301;SDS011;135;46.256;20.146;2022-07-04T00:39:27;35.10;;;33.40;;
301;SDS011;135;46.256;20.146;2022-07-04T00:41:54;35.55;;;33.85;;
301;SDS011;135;46.256;20.146;2022-07-04T00:44:22;33.85;;;32.15;;
301;SDS011;135;46.256;20.146;2022-07-04T00:46:50;34.05;;;32.35;;
301;SDS011;135;46.256;20.146;2022-07-04T00:49:18;34.40;;;32.70;;
301;SDS011;135;46.256;20.146;2022-07-04T00:51:46;36.00;;;34.20;;
301;SDS011;135;46.256;20.146;2022-07-04T00:54:14;35.30;;;33.60;;
301;SDS011;135;46.256;20.146;2022-07-04T00:56:43;35.60;;;33.90;;
301;SDS011;135;46.256;20.146;2022-07-04T00:59:10;35.90;;;34.10;;
301;SDS011;135;46.256;20.146;2022-07-04T01:01:38;34.30;;;32.60;;
301;SDS011;135;46.256;20.146;2022-07-04T01:04:07;36.80;;;35.00;;
301;SDS011;135;46.256;20.146;2022-07-04T01:06:34;34.20;;;32.50;;
301;SDS011;135;46.256;20.146;2022-07-04T01:09:02;34.75;;;33.05;;
301;SDS011;135;46.256;20.146;2022-07-04T01:11:29;34.70;;;33.00;;
301;SDS011;135;46.256;20.146;2022-07-04T01:13:56;35.50;;;33.80;;
301;SDS011;135;46.256;20.146;2022-07-04T01:16:24;35.50;;;33.80;;
301;SDS011;135;46.256;20.146;2022-07-04T01:18:52;35.00;;;33.30;;
301;SDS011;135;46.256;20.146;2022-07-04T01:21:21;35.35;;;33.65;;
301;SDS011;135;46.256;20.146;2022-07-04T01:23:48;38.10;;;36.25;;
301;SDS011;135;46.256;20.146;2022-07-04T01:26:15;35.10;;;33.40;;
301;SDS011;135;46.256;20.146;2022-07-04T01:28:43;38.70;;;36.80;;
301;SDS011;135;46.256;20.146;2022-07-04T01:31:11;40.05;;;38.10;;
301;SDS011;135;46.256;20.146;2022-07-04T01:33:38;37.60;;;35.80;;
301;SDS011;135;46.256;20.146;2022-07-04T01:36:05;42.80;;;40.70;;
301;SDS011;135;46.256;20.146;2022-07-04T01:38:34;47.60;;;45.30;;
301;SDS011;135;46.256;20.146;2022-07-04T01:41:01;40.45;;;38.45;;
301;SDS011;135;46.256;20.146;2022-07-04T01:43:29;47.70;;;45.40;;
301;SDS011;135;46.256;20.146;2022-07-04T01:45:56;46.75;;;44.45;;
301;SDS011;135;46.256;20.146;2022-07-04T01:48:23;41.20;;;39.20;;
301;SDS011;135;46.256;20.146;2022-07-04T01:50:51;44.80;;;42.60;;
301;SDS011;135;46.256;20.146;2022-07-04T01:53:18;42.80;;;40.70;;
301;SDS011;135;46.256;20.146;2022-07-04T01:55:47;44.00;;;41.90;;
301;SDS011;135;46.256;20.146;2022-07-04T01:58:14;43.70;;;41.60;;
301;SDS011;135;46.256;20.146;2022-07-04T02:00:41;42.70;;;40.60;;
301;SDS011;135;46.256;20.146;2022-07-04T02:03:26;43.40;;;41.30;;
301;SDS011;135;46.256;20.146;2022-07-04T02:05:54;45.70;;;43.50;;
301;SDS011;135;46.256;20.146;2022-07-04T02:08:21;44.70;;;42.50;;
301;SDS011;135;46.256;20.146;2022-07-04T02:11:10;42.85;;;40.75;;
301;SDS011;135;46.256;20.146;2022-07-04T02:13:37;44.85;;;42.65;;
301;SDS011;135;46.256;20.146;2022-07-04T02:16:03;43.80;;;41.70;;
301;SDS011;135;46.256;20.146;2022-07-04T02:18:31;43.75;;;41.65;;
301;SDS011;135;46.256;20.146;2022-07-04T02:20:58;44.80;;;42.60;;
301;SDS011;135;46.256;20.146;2022-07-04T02:23:26;44.00;;;41.85;;
301;SDS011;135;46.256;20.146;2022-07-04T02:25:53;44.65;;;42.45;;
301;SDS011;135;46.256;20.146;2022-07-04T02:28:21;45.10;;;42.90;;
301;SDS011;135;46.256;20.146;2022-07-04T02:30:49;44.20;;;42.00;;
301;SDS011;135;46.256;20.146;2022-07-04T02:33:16;45.65;;;43.45;;
301;SDS011;135;46.256;20.146;2022-07-04T02:35:43;45.20;;;43.00;;
301;SDS011;135;46.256;20.146;2022-07-04T02:38:11;45.10;;;42.90;;
301;SDS011;135;46.256;20.146;2022-07-04T02:40:38;42.90;;;40.80;;
301;SDS011;135;46.256;20.146;2022-07-04T02:43:05;43.70;;;41.60;;
301;SDS011;135;46.256;20.146;2022-07-04T02:45:34;42.80;;;40.70;;
301;SDS011;135;46.256;20.146;2022-07-04T02:48:01;43.40;;;41.30;;
301;SDS011;135;46.256;20.146;2022-07-04T02:50:29;42.50;;;40.40;;
301;SDS011;135;46.256;20.146;2022-07-04T02:52:56;42.50;;;40.40;;
301;SDS011;135;46.256;20.146;2022-07-04T02:55:23;40.50;;;38.50;;
301;SDS011;135;46.256;20.146;2022-07-04T02:57:50;37.80;;;35.95;;
301;SDS011;135;46.256;20.146;2022-07-04T03:00:18;37.90;;;36.00;;
301;SDS011;135;46.256;20.146;2022-07-04T03:02:47;37.25;;;35.45;;
301;SDS011;135;46.256;20.146;2022-07-04T03:05:14;36.30;;;34.50;;
301;SDS011;135;46.256;20.146;2022-07-04T03:12:36;40.85;;;38.85;;
301;SDS011;135;46.256;20.146;2022-07-04T03:15:03;43.80;;;41.70;;
301;SDS011;135;46.256;20.146;2022-07-04T03:17:31;36.60;;;34.80;;
301;SDS011;135;46.256;20.146;2022-07-04T03:20:00;38.00;;;36.10;;
301;SDS011;135;46.256;20.146;2022-07-04T03:22:27;40.90;;;38.90;;
301;SDS011;135;46.256;20.146;2022-07-04T03:24:55;35.20;;;33.50;;
301;SDS011;135;46.256;20.146;2022-07-04T03:27:22;38.40;;;36.50;;
301;SDS011;135;46.256;20.146;2022-07-04T03:34:43;43.95;;;41.85;;
301;SDS011;135;46.256;20.146;2022-07-04T03:37:12;41.00;;;39.00;;
301;SDS011;135;46.256;20.146;2022-07-04T03:39:39;41.30;;;39.30;;
301;SDS011;135;46.256;20.146;2022-07-04T03:42:07;38.90;;;37.00;;
301;SDS011;135;46.256;20.146;2022-07-04T03:44:34;40.50;;;38.50;;
301;SDS011;135;46.256;20.146;2022-07-04T03:47:01;42.30;;;40.20;;
301;SDS011;135;46.256;20.146;2022-07-04T03:49:29;42.10;;;40.00;;
301;SDS011;135;46.256;20.146;2022-07-04T03:51:56;40.05;;;38.10;;
301;SDS011;135;46.256;20.146;2022-07-04T03:54:25;39.80;;;37.90;;
301;SDS011;135;46.256;20.146;2022-07-04T03:56:53;40.80;;;38.80;;
301;SDS011;135;46.256;20.146;2022-07-04T03:59:21;36.60;;;34.80;;
301;SDS011;135;46.256;20.146;2022-07-04T04:01:48;36.90;;;35.10;;
301;SDS011;135;46.256;20.146;2022-07-04T04:04:15;33.35;;;31.75;;
301;SDS011;135;46.256;20.146;2022-07-04T04:07:00;33.30;;;31.70;;
301;SDS011;135;46.256;20.146;2022-07-04T04:09:29;42.90;;;40.80;;
301;SDS011;135;46.256;20.146;2022-07-04T04:11:56;42.80;;;40.70;;
301;SDS011;135;46.256;20.146;2022-07-04T04:14:23;45.50;;;43.30;;
301;SDS011;135;46.256;20.146;2022-07-04T04:16:52;43.80;;;41.70;;
301;SDS011;135;46.256;20.146;2022-07-04T04:19:20;44.00;;;41.90;;
301;SDS011;135;46.256;20.146;2022-07-04T04:21:47;42.40;;;40.30;;
301;SDS011;135;46.256;20.146;2022-07-04T04:24:14;39.90;;;37.95;;
301;SDS011;135;46.256;20.146;2022-07-04T04:26:43;44.80;;;42.60;;
301;SDS011;135;46.256;20.146;2022-07-04T04:29:10;43.20;;;41.10;;
301;SDS011;135;46.256;20.146;2022-07-04T04:31:38;42.55;;;40.45;;
301;SDS011;135;46.256;20.146;2022-07-04T04:34:05;40.40;;;38.40;;
301;SDS011;135;46.256;20.146;2022-07-04T04:36:32;42.60;;;40.50;;
301;SDS011;135;46.256;20.146;2022-07-04T04:39:00;40.35;;;38.35;;
301;SDS011;135;46.256;20.146;2022-07-04T04:41:27;36.25;;;34.45;;
301;SDS011;135;46.256;20.146;2022-07-04T04:43:56;35.60;;;33.90;;
301;SDS011;135;46.256;20.146;2022-07-04T04:46:23;35.20;;;33.50;;
301;SDS011;135;46.256;20.146;2022-07-04T04:48:51;34.50;;;32.80;;
301;SDS011;135;46.256;20.146;2022-07-04T04:51:18;36.00;;;34.20;;
301;SDS011;135;46.256;20.146;2022-07-04T04:53:45;35.20;;;33.50;;
301;SDS011;135;46.256;20.146;2022-07-04T04:56:13;35.50;;;33.80;;
301;SDS011;135;46.256;20.146;2022-07-04T04:58:40;37.00;;;35.20;;
301;SDS011;135;46.256;20.146;2022-07-04T05:01:09;35.80;;;34.05;;
301;SDS011;135;46.256;20.146;2022-07-04T05:03:36;38.55;;;36.65;;
301;SDS011;135;46.256;20.146;2022-07-04T05:06:04;43.50;;;41.40;;
301;SDS011;135;46.256;20.146;2022-07-04T05:08:31;46.40;;;44.10;;
301;SDS011;135;46.256;20.146;2022-07-04T05:10:59;45.10;;;42.90;;
301;SDS011;135;46.256;20.146;2022-07-04T05:13:26;50.50;;;48.00;;
301;SDS011;135;46.256;20.146;2022-07-04T05:15:53;47.58;;;45.28;;
301;SDS011;135;46.256;20.146;2022-07-04T05:18:23;50.92;;;48.42;;
301;SDS011;135;46.256;20.146;2022-07-04T05:20:50;54.80;;;52.10;;
301;SDS011;135;46.256;20.146;2022-07-04T05:23:17;56.10;;;53.40;;
301;SDS011;135;46.256;20.146;2022-07-04T05:25:45;47.25;;;44.95;;
301;SDS011;135;46.256;20.146;2022-07-04T05:28:15;47.47;;;45.17;;
301;SDS011;135;46.256;20.146;2022-07-04T05:30:42;50.13;;;47.72;;
301;SDS011;135;46.256;20.146;2022-07-04T05:33:09;51.40;;;48.90;;
301;SDS011;135;46.256;20.146;2022-07-04T05:35:38;51.50;;;49.00;;
301;SDS011;135;46.256;20.146;2022-07-04T05:38:06;54.33;;;51.70;;
301;SDS011;135;46.256;20.146;2022-07-04T05:40:33;55.55;;;52.85;;
301;SDS011;135;46.256;20.146;2022-07-04T05:43:00;54.42;;;51.83;;
301;SDS011;135;46.256;20.146;2022-07-04T05:45:28;51.47;;;48.97;;
301;SDS011;135;46.256;20.146;2022-07-04T05:47:55;53.15;;;50.55;;
301;SDS011;135;46.256;20.146;2022-07-04T05:50:22;57.70;;;54.90;;
301;SDS011;135;46.256;20.146;2022-07-04T05:52:51;54.33;;;51.70;;
301;SDS011;135;46.256;20.146;2022-07-04T05:55:19;54.42;;;51.80;;
301;SDS011;135;46.256;20.146;2022-07-04T05:57:46;52.43;;;49.90;;
301;SDS011;135;46.256;20.146;2022-07-04T06:00:13;55.25;;;52.55;;
301;SDS011;135;46.256;20.146;2022-07-04T07:17:38;76.57;;;72.87;;
301;SDS011;135;46.256;20.146;2022-07-04T07:20:05;82.70;;;78.70;;
301;SDS011;135;46.256;20.146;2022-07-04T07:22:33;76.50;;;72.80;;
301;SDS011;135;46.256;20.146;2022-07-04T07:25:00;77.07;;;73.37;;
301;SDS011;135;46.256;20.146;2022-07-04T07:27:28;77.07;;;73.38;;
301;SDS011;135;46.256;20.146;2022-07-04T07:29:55;81.18;;;77.28;;
301;SDS011;135;46.256;20.146;2022-07-04T07:32:23;88.65;;;84.38;;
301;SDS011;135;46.256;20.146;2022-07-04T07:34:51;87.95;;;83.75;;
301;SDS011;135;46.256;20.146;2022-07-04T07:37:19;75.70;;;72.03;;
301;SDS011;135;46.256;20.146;2022-07-04T07:39:47;73.25;;;69.72;;
301;SDS011;135;46.256;20.146;2022-07-04T07:42:14;65.40;;;62.20;;
301;SDS011;135;46.256;20.146;2022-07-04T07:44:42;66.72;;;63.53;;
301;SDS011;135;46.256;20.146;2022-07-04T07:47:11;70.53;;;67.13;;
301;SDS011;135;46.256;20.146;2022-07-04T07:49:38;75.32;;;71.70;;
301;SDS011;135;46.256;20.146;2022-07-04T07:52:07;92.53;;;88.07;;
301;SDS011;135;46.256;20.146;2022-07-04T07:54:35;84.28;;;80.18;;
301;SDS011;135;46.256;20.146;2022-07-04T07:57:02;89.50;;;85.20;;
301;SDS011;135;46.256;20.146;2022-07-04T07:59:30;88.47;;;84.18;;
301;SDS011;135;46.256;20.146;2022-07-04T08:01:57;91.57;;;87.17;;
301;SDS011;135;46.256;20.146;2022-07-04T08:04:25;87.70;;;83.50;;
301;SDS011;135;46.256;20.146;2022-07-04T08:07:01;76.47;;;72.77;;
301;SDS011;135;46.256;20.146;2022-07-04T08:09:30;77.97;;;74.17;;
301;SDS011;135;46.256;20.146;2022-07-04T08:11:58;66.40;;;63.20;;
301;SDS011;135;46.256;20.146;2022-07-04T08:14:25;75.13;;;71.50;;
301;SDS011;135;46.256;20.146;2022-07-04T08:16:53;59.15;;;56.25;;
301;SDS011;135;46.256;20.146;2022-07-04T08:19:20;57.50;;;54.70;;
301;SDS011;135;46.256;20.146;2022-07-04T08:21:47;57.05;;;54.25;;
301;SDS011;135;46.256;20.146;2022-07-04T08:24:15;63.50;;;60.40;;
301;SDS011;135;46.256;20.146;2022-07-04T08:26:44;55.47;;;52.78;;
301;SDS011;135;46.256;20.146;2022-07-04T08:29:13;53.80;;;51.20;;
301;SDS011;135;46.256;20.146;2022-07-04T08:31:40;53.42;;;50.83;;
301;SDS011;135;46.256;20.146;2022-07-04T08:34:08;49.72;;;47.33;;
301;SDS011;135;46.256;20.146;2022-07-04T08:36:35;46.97;;;44.67;;
301;SDS011;135;46.256;20.146;2022-07-04T08:39:03;56.65;;;53.92;;
301;SDS011;135;46.256;20.146;2022-07-04T08:41:32;54.97;;;52.28;;
301;SDS011;135;46.256;20.146;2022-07-04T08:44:04;54.35;;;51.72;;
301;SDS011;135;46.256;20.146;2022-07-04T08:46:31;54.67;;;52.00;;
301;SDS011;135;46.256;20.146;2022-07-04T08:48:59;47.30;;;45.00;;
301;SDS011;135;46.256;20.146;2022-07-04T08:51:32;47.10;;;44.80;;
301;SDS011;135;46.256;20.146;2022-07-04T08:54:01;45.80;;;43.60;;
301;SDS011;135;46.256;20.146;2022-07-04T08:56:50;45.40;;;43.20;;
301;SDS011;135;46.256;20.146;2022-07-04T08:59:36;41.38;;;39.38;;
301;SDS011;135;46.256;20.146;2022-07-04T09:02:05;45.20;;;43.00;;
301;SDS011;135;46.256;20.146;2022-07-04T09:04:32;43.90;;;41.80;;
301;SDS011;135;46.256;20.146;2022-07-04T09:07:00;51.55;;;49.05;;
301;SDS011;135;46.256;20.146;2022-07-04T09:09:28;55.13;;;52.43;;
301;SDS011;135;46.256;20.146;2022-07-04T09:11:56;49.93;;;47.53;;
301;SDS011;135;46.256;20.146;2022-07-04T09:14:23;50.50;;;48.03;;
301;SDS011;135;46.256;20.146;2022-07-04T09:16:52;39.20;;;37.30;;
301;SDS011;135;46.256;20.146;2022-07-04T09:19:20;54.88;;;52.17;;
301;SDS011;135;46.256;20.146;2022-07-04T09:21:48;44.65;;;42.45;;
301;SDS011;135;46.256;20.146;2022-07-04T09:24:16;51.38;;;48.88;;
301;SDS011;135;46.256;20.146;2022-07-04T09:26:44;52.35;;;49.80;;
301;SDS011;135;46.256;20.146;2022-07-04T09:29:11;48.70;;;46.30;;
301;SDS011;135;46.256;20.146;2022-07-04T09:31:38;51.00;;;48.50;;
301;SDS011;135;46.256;20.146;2022-07-04T09:34:07;51.75;;;49.25;;
301;SDS011;135;46.256;20.146;2022-07-04T09:36:38;48.00;;;45.70;;
301;SDS011;135;46.256;20.146;2022-07-04T09:39:07;48.53;;;46.13;;
301;SDS011;135;46.256;20.146;2022-07-04T09:41:50;48.08;;;45.78;;
301;SDS011;135;46.256;20.146;2022-07-04T09:44:18;50.92;;;48.42;;
301;SDS011;135;46.256;20.146;2022-07-04T09:46:45;49.87;;;47.47;;
301;SDS011;135;46.256;20.146;2022-07-04T09:49:14;47.50;;;45.20;;
301;SDS011;135;46.256;20.146;2022-07-04T09:51:42;48.78;;;46.38;;
301;SDS011;135;46.256;20.146;2022-07-04T09:54:13;51.35;;;48.85;;
301;SDS011;135;46.256;20.146;2022-07-04T09:56:41;49.65;;;47.25;;
301;SDS011;135;46.256;20.146;2022-07-04T09:59:09;48.23;;;45.90;;
301;SDS011;135;46.256;20.146;2022-07-04T10:01:36;49.67;;;47.28;;
301;SDS011;135;46.256;20.146;2022-07-04T10:04:05;47.95;;;45.65;;
301;SDS011;135;46.256;20.146;2022-07-04T10:06:34;48.00;;;45.70;;
301;SDS011;135;46.256;20.146;2022-07-04T10:09:08;47.28;;;44.97;;
301;SDS011;135;46.256;20.146;2022-07-04T10:11:36;51.58;;;49.08;;
301;SDS011;135;46.256;20.146;2022-07-04T10:14:04;50.20;;;47.77;;
301;SDS011;135;46.256;20.146;2022-07-04T10:16:32;47.30;;;45.00;;
301;SDS011;135;46.256;20.146;2022-07-04T10:19:00;44.90;;;42.70;;
301;SDS011;135;46.256;20.146;2022-07-04T10:21:28;45.92;;;43.72;;
301;SDS011;135;46.256;20.146;2022-07-04T10:23:57;45.50;;;43.30;;
301;SDS011;135;46.256;20.146;2022-07-04T10:26:24;43.83;;;41.70;;
301;SDS011;135;46.256;20.146;2022-07-04T10:28:54;47.22;;;44.92;;
301;SDS011;135;46.256;20.146;2022-07-04T10:31:22;43.20;;;41.10;;
301;SDS011;135;46.256;20.146;2022-07-04T10:33:50;41.70;;;39.70;;
301;SDS011;135;46.256;20.146;2022-07-04T10:36:20;36.45;;;34.65;;
301;SDS011;135;46.256;20.146;2022-07-04T10:38:49;35.50;;;33.80;;
301;SDS011;135;46.256;20.146;2022-07-04T10:41:18;36.80;;;35.00;;
301;SDS011;135;46.256;20.146;2022-07-04T10:43:56;41.97;;;39.92;;
301;SDS011;135;46.256;20.146;2022-07-04T10:46:44;43.08;;;40.97;;
301;SDS011;135;46.256;20.146;2022-07-04T10:49:19;38.40;;;36.50;;
301;SDS011;135;46.256;20.146;2022-07-04T10:51:48;37.30;;;35.50;;
301;SDS011;135;46.256;20.146;2022-07-04T10:54:16;34.17;;;32.47;;
301;SDS011;135;46.256;20.146;2022-07-04T10:56:49;39.42;;;37.53;;
301;SDS011;135;46.256;20.146;2022-07-04T10:59:17;43.50;;;41.40;;
301;SDS011;135;46.256;20.146;2022-07-04T11:01:46;49.25;;;46.85;;
301;SDS011;135;46.256;20.146;2022-07-04T11:04:16;40.10;;;38.13;;
301;SDS011;135;46.256;20.146;2022-07-04T11:07:03;39.90;;;37.95;;
301;SDS011;135;46.256;20.146;2022-07-04T11:09:31;42.55;;;40.45;;
301;SDS011;135;46.256;20.146;2022-07-04T11:12:00;45.88;;;43.67;;
301;SDS011;135;46.256;20.146;2022-07-04T11:14:32;43.47;;;41.38;;
301;SDS011;135;46.256;20.146;2022-07-04T11:17:00;44.80;;;42.60;;
301;SDS011;135;46.256;20.146;2022-07-04T11:19:27;42.83;;;40.72;;
301;SDS011;135;46.256;20.146;2022-07-04T11:21:55;45.00;;;42.80;;
301;SDS011;135;46.256;20.146;2022-07-04T11:24:22;45.95;;;43.75;;
301;SDS011;135;46.256;20.146;2022-07-04T11:26:50;45.47;;;43.28;;
301;SDS011;135;46.256;20.146;2022-07-04T11:29:19;43.13;;;41.03;;
301;SDS011;135;46.256;20.146;2022-07-04T11:31:47;43.42;;;41.33;;
301;SDS011;135;46.256;20.146;2022-07-04T11:34:15;43.23;;;41.13;;
301;SDS011;135;46.256;20.146;2022-07-04T11:36:43;43.60;;;41.50;;
301;SDS011;135;46.256;20.146;2022-07-04T11:39:11;42.90;;;40.80;;
301;SDS011;135;46.256;20.146;2022-07-04T11:41:40;41.58;;;39.58;;
301;SDS011;135;46.256;20.146;2022-07-04T11:44:27;41.92;;;39.90;;
301;SDS011;135;46.256;20.146;2022-07-04T11:47:12;43.85;;;41.75;;
301;SDS011;135;46.256;20.146;2022-07-04T11:49:41;42.00;;;39.97;;
301;SDS011;135;46.256;20.146;2022-07-04T11:52:09;43.65;;;41.55;;
301;SDS011;135;46.256;20.146;2022-07-04T11:54:38;40.53;;;38.53;;
301;SDS011;135;46.256;20.146;2022-07-04T11:57:09;43.78;;;41.67;;
301;SDS011;135;46.256;20.146;2022-07-04T11:59:37;41.20;;;39.20;;
301;SDS011;135;46.256;20.146;2022-07-04T12:02:12;45.17;;;42.97;;
301;SDS011;135;46.256;20.146;2022-07-04T12:04:39;43.20;;;41.10;;
301;SDS011;135;46.256;20.146;2022-07-04T12:07:11;44.50;;;42.30;;
301;SDS011;135;46.256;20.146;2022-07-04T12:09:38;43.70;;;41.60;;
301;SDS011;135;46.256;20.146;2022-07-04T12:12:06;42.88;;;40.78;;
301;SDS011;135;46.256;20.146;2022-07-04T12:14:34;42.90;;;40.80;;
301;SDS011;135;46.256;20.146;2022-07-04T12:17:09;46.85;;;44.55;;
301;SDS011;135;46.256;20.146;2022-07-04T12:19:37;44.67;;;42.47;;
301;SDS011;135;46.256;20.146;2022-07-04T12:22:04;41.10;;;39.10;;
301;SDS011;135;46.256;20.146;2022-07-04T12:24:41;42.72;;;40.63;;
301;SDS011;135;46.256;20.146;2022-07-04T12:27:16;38.45;;;36.55;;
301;SDS011;135;46.256;20.146;2022-07-04T12:29:47;44.38;;;42.17;;
301;SDS011;135;46.256;20.146;2022-07-04T12:32:16;44.60;;;42.40;;
301;SDS011;135;46.256;20.146;2022-07-04T12:34:44;41.00;;;39.00;;
301;SDS011;135;46.256;20.146;2022-07-04T12:37:12;40.60;;;38.60;;
301;SDS011;135;46.256;20.146;2022-07-04T12:39:40;41.38;;;39.38;;
301;SDS011;135;46.256;20.146;2022-07-04T12:42:09;44.63;;;42.42;;
301;SDS011;135;46.256;20.146;2022-07-04T12:44:37;43.67;;;41.55;;
301;SDS011;135;46.256;20.146;2022-07-04T12:47:05;43.58;;;41.47;;
301;SDS011;135;46.256;20.146;2022-07-04T12:49:34;40.22;;;38.22;;
301;SDS011;135;46.256;20.146;2022-07-04T12:52:06;42.38;;;40.28;;
301;SDS011;135;46.256;20.146;2022-07-04T12:54:33;42.60;;;40.50;;
301;SDS011;135;46.256;20.146;2022-07-04T12:57:04;41.72;;;39.72;;
301;SDS011;135;46.256;20.146;2022-07-04T12:59:32;42.17;;;40.10;;
301;SDS011;135;46.256;20.146;2022-07-04T13:01:59;44.05;;;41.90;;
301;SDS011;135;46.256;20.146;2022-07-04T13:04:27;40.90;;;38.90;;
301;SDS011;135;46.256;20.146;2022-07-04T13:06:57;44.25;;;42.05;;
301;SDS011;135;46.256;20.146;2022-07-04T13:09:25;42.95;;;40.85;;
301;SDS011;135;46.256;20.146;2022-07-04T13:11:53;39.67;;;37.78;;
301;SDS011;135;46.256;20.146;2022-07-04T13:14:37;42.30;;;40.20;;
301;SDS011;135;46.256;20.146;2022-07-04T13:17:05;43.42;;;41.33;;
301;SDS011;135;46.256;20.146;2022-07-04T13:19:32;41.90;;;39.90;;
301;SDS011;135;46.256;20.146;2022-07-04T13:22:01;41.70;;;39.70;;
301;SDS011;135;46.256;20.146;2022-07-04T13:24:28;39.63;;;37.72;;
301;SDS011;135;46.256;20.146;2022-07-04T13:26:56;40.25;;;38.25;;
301;SDS011;135;46.256;20.146;2022-07-04T13:29:24;42.65;;;40.55;;
301;SDS011;135;46.256;20.146;2022-07-04T13:31:51;42.58;;;40.47;;
301;SDS011;135;46.256;20.146;2022-07-04T13:34:20;40.80;;;38.80;;
301;SDS011;135;46.256;20.146;2022-07-04T13:36:47;41.63;;;39.63;;
301;SDS011;135;46.256;20.146;2022-07-04T13:39:18;36.67;;;34.88;;
301;SDS011;135;46.256;20.146;2022-07-04T13:41:46;39.58;;;37.67;;
301;SDS011;135;46.256;20.146;2022-07-04T13:44:13;44.30;;;42.10;;
301;SDS011;135;46.256;20.146;2022-07-04T13:46:41;37.80;;;35.95;;
301;SDS011;135;46.256;20.146;2022-07-04T13:49:09;41.55;;;39.55;;
301;SDS011;135;46.256;20.146;2022-07-04T13:51:37;42.22;;;40.15;;
301;SDS011;135;46.256;20.146;2022-07-04T13:54:04;42.45;;;40.35;;
301;SDS011;135;46.256;20.146;2022-07-04T13:56:33;40.78;;;38.78;;
301;SDS011;135;46.256;20.146;2022-07-04T13:59:01;38.50;;;36.60;;
301;SDS011;135;46.256;20.146;2022-07-04T14:01:28;38.42;;;36.53;;
301;SDS011;135;46.256;20.146;2022-07-04T14:03:55;39.83;;;37.90;;
301;SDS011;135;46.256;20.146;2022-07-04T14:06:23;39.13;;;37.22;;
301;SDS011;135;46.256;20.146;2022-07-04T14:08:50;38.35;;;36.45;;
301;SDS011;135;46.256;20.146;2022-07-04T14:11:17;40.28;;;38.30;;
301;SDS011;135;46.256;20.146;2022-07-04T14:13:46;39.33;;;37.43;;
301;SDS011;135;46.256;20.146;2022-07-04T14:16:14;42.55;;;40.45;;
301;SDS011;135;46.256;20.146;2022-07-04T14:18:41;38.03;;;36.13;;
301;SDS011;135;46.256;20.146;2022-07-04T14:21:09;40.70;;;38.70;;
301;SDS011;135;46.256;20.146;2022-07-04T14:23:36;37.88;;;36.03;;
301;SDS011;135;46.256;20.146;2022-07-04T14:26:06;39.90;;;37.95;;
301;SDS011;135;46.256;20.146;2022-07-04T14:28:34;39.30;;;37.40;;
301;SDS011;135;46.256;20.146;2022-07-04T14:31:03;39.00;;;37.10;;
301;SDS011;135;46.256;20.146;2022-07-04T14:33:30;41.50;;;39.50;;
301;SDS011;135;46.256;20.146;2022-07-04T14:35:59;40.90;;;38.90;;
301;SDS011;135;46.256;20.146;2022-07-04T14:38:26;40.42;;;38.42;;
301;SDS011;135;46.256;20.146;2022-07-04T14:40:53;40.20;;;38.20;;
301;SDS011;135;46.256;20.146;2022-07-04T14:43:20;39.07;;;37.17;;
301;SDS011;135;46.256;20.146;2022-07-04T14:45:48;39.58;;;37.67;;
301;SDS011;135;46.256;20.146;2022-07-04T14:48:17;39.50;;;37.60;;
301;SDS011;135;46.256;20.146;2022-07-04T14:50:44;40.30;;;38.30;;
301;SDS011;135;46.256;20.146;2022-07-04T14:53:13;39.80;;;37.90;;
301;SDS011;135;46.256;20.146;2022-07-04T14:55:41;37.75;;;35.92;;
301;SDS011;135;46.256;20.146;2022-07-04T14:58:08;40.50;;;38.50;;
301;SDS011;135;46.256;20.146;2022-07-04T15:00:35;40.67;;;38.67;;
301;SDS011;135;46.256;20.146;2022-07-04T15:03:03;39.60;;;37.70;;
301;SDS011;135;46.256;20.146;2022-07-04T15:05:31;41.40;;;39.40;;
301;SDS011;135;46.256;20.146;2022-07-04T15:07:59;40.95;;;38.95;;
301;SDS011;135;46.256;20.146;2022-07-04T15:10:26;37.50;;;35.70;;
301;SDS011;135;46.256;20.146;2022-07-04T15:12:54;40.08;;;38.10;;
301;SDS011;135;46.256;20.146;2022-07-04T15:15:21;41.05;;;39.05;;
301;SDS011;135;46.256;20.146;2022-07-04T15:17:48;38.13;;;36.22;;
301;SDS011;135;46.256;20.146;2022-07-04T15:20:16;37.55;;;35.75;;
301;SDS011;135;46.256;20.146;2022-07-04T15:23:02;35.03;;;33.33;;
301;SDS011;135;46.256;20.146;2022-07-04T15:25:46;34.28;;;32.58;;
301;SDS011;135;46.256;20.146;2022-07-04T15:28:14;32.10;;;30.50;;
301;SDS011;135;46.256;20.146;2022-07-04T15:30:41;35.08;;;33.38;;
301;SDS011;135;46.256;20.146;2022-07-04T15:33:08;36.13;;;34.33;;
301;SDS011;135;46.256;20.146;2022-07-04T15:35:40;34.03;;;32.33;;
301;SDS011;135;46.256;20.146;2022-07-04T15:38:09;25.98;;;24.67;;
301;SDS011;135;46.256;20.146;2022-07-04T15:40:36;28.00;;;26.60;;
301;SDS011;135;46.256;20.146;2022-07-04T15:43:04;27.10;;;25.80;;
301;SDS011;135;46.256;20.146;2022-07-04T15:45:31;30.60;;;29.10;;
301;SDS011;135;46.256;20.146;2022-07-04T15:47:58;35.17;;;33.47;;
301;SDS011;135;46.256;20.146;2022-07-04T15:50:26;36.25;;;34.45;;
301;SDS011;135;46.256;20.146;2022-07-04T15:52:53;41.25;;;39.25;;
301;SDS011;135;46.256;20.146;2022-07-04T15:55:22;38.75;;;36.85;;
301;SDS011;135;46.256;20.146;2022-07-04T15:57:51;38.80;;;36.90;;
301;SDS011;135;46.256;20.146;2022-07-04T16:00:19;41.58;;;39.58;;
301;SDS011;135;46.256;20.146;2022-07-04T16:02:49;41.25;;;39.25;;
301;SDS011;135;46.256;20.146;2022-07-04T16:05:17;40.63;;;38.63;;
301;SDS011;135;46.256;20.146;2022-07-04T16:07:45;42.67;;;40.58;;
301;SDS011;135;46.256;20.146;2022-07-04T16:10:12;41.83;;;39.80;;
301;SDS011;135;46.256;20.146;2022-07-04T16:12:41;44.22;;;42.05;;
301;SDS011;135;46.256;20.146;2022-07-04T16:15:09;43.75;;;41.65;;
301;SDS011;135;46.256;20.146;2022-07-04T16:17:37;41.50;;;39.50;;
301;SDS011;135;46.256;20.146;2022-07-04T16:20:04;42.95;;;40.85;;
301;SDS011;135;46.256;20.146;2022-07-04T16:22:32;42.65;;;40.55;;
301;SDS011;135;46.256;20.146;2022-07-04T16:25:02;45.00;;;42.80;;
301;SDS011;135;46.256;20.146;2022-07-04T16:27:30;44.90;;;42.70;;
301;SDS011;135;46.256;20.146;2022-07-04T16:29:58;44.63;;;42.42;;
301;SDS011;135;46.256;20.146;2022-07-04T16:32:26;42.92;;;40.83;;